sensor_id;sensor_type;location;lat;lon;timestamp;pressure;altitude;pressure_sealevel;temperature;humidity
9110;BME280;4590;51.462;6.692;2023-01-27T00:00:40;102106.31;;;6.29;66.46
9110;BME280;4590;51.462;6.692;2023-01-27T00:03:06;102105.19;;;6.30;65.97
9110;BME280;4590;51.462;6.692;2023-01-27T00:05:34;102101.16;;;6.32;66.28
9110;BME280;4590;51.462;6.692;2023-01-27T00:07:59;102103.06;;;6.32;66.05
9110;BME280;4590;51.462;6.692;2023-01-27T00:10:25;102103.28;;;6.30;65.90
9110;BME280;4590;51.462;6.692;2023-01-27T00:12:50;102095.63;;;6.27;66.10
9110;BME280;4590;51.462;6.692;2023-01-27T00:15:34;102100.00;;;6.28;66.15
9110;BME280;4590;51.462;6.692;2023-01-27T00:18:00;102098.09;;;6.29;66.37
9110;BME280;4590;51.462;6.692;2023-01-27T00:20:25;102106.88;;;6.31;66.36
9110;BME280;4590;51.462;6.692;2023-01-27T00:23:14;102111.78;;;6.29;66.44
9110;BME280;4590;51.462;6.692;2023-01-27T00:25:59;102112.59;;;6.29;66.11
9110;BME280;4590;51.462;6.692;2023-01-27T00:28:26;102103.56;;;6.29;66.20
9110;BME280;4590;51.462;6.692;2023-01-27T00:30:55;102110.09;;;6.28;66.65
9110;BME280;4590;51.462;6.692;2023-01-27T00:33:20;102098.09;;;6.29;66.65
9110;BME280;4590;51.462;6.692;2023-01-27T00:36:06;102108.44;;;6.27;66.77
9110;BME280;4590;51.462;6.692;2023-01-27T00:38:34;102110.66;;;6.30;67.04
9110;BME280;4590;51.462;6.692;2023-01-27T00:41:05;102114.50;;;6.29;67.29
9110;BME280;4590;51.462;6.692;2023-01-27T00:43:43;102103.81;;;6.27;66.66
9110;BME280;4590;51.462;6.692;2023-01-27T00:46:09;102118.78;;;6.25;66.13
9110;BME280;4590;51.462;6.692;2023-01-27T00:48:34;102114.41;;;6.24;66.80
9110;BME280;4590;51.462;6.692;2023-01-27T00:51:00;102117.38;;;6.22;66.68
9110;BME280;4590;51.462;6.692;2023-01-27T00:53:26;102116.78;;;6.20;66.98
9110;BME280;4590;51.462;6.692;2023-01-27T00:55:51;102111.91;;;6.22;67.07
9110;BME280;4590;51.462;6.692;2023-01-27T00:58:16;102107.84;;;6.25;66.90
9110;BME280;4590;51.462;6.692;2023-01-27T01:00:42;102115.00;;;6.26;66.67
9110;BME280;4590;51.462;6.692;2023-01-27T01:03:07;102115.94;;;6.20;66.95
9110;BME280;4590;51.462;6.692;2023-01-27T01:05:32;102120.59;;;6.19;66.84
9110;BME280;4590;51.462;6.692;2023-01-27T01:07:58;102122.00;;;6.22;66.88
9110;BME280;4590;51.462;6.692;2023-01-27T01:10:23;102123.31;;;6.19;67.23
9110;BME280;4590;51.462;6.692;2023-01-27T01:12:48;102136.38;;;6.17;66.82
9110;BME280;4590;51.462;6.692;2023-01-27T01:15:13;102125.94;;;6.14;66.67
9110;BME280;4590;51.462;6.692;2023-01-27T01:17:39;102127.28;;;6.12;66.77
9110;BME280;4590;51.462;6.692;2023-01-27T01:20:04;102134.41;;;6.13;67.11
9110;BME280;4590;51.462;6.692;2023-01-27T01:22:30;102131.56;;;6.08;66.99
9110;BME280;4590;51.462;6.692;2023-01-27T01:24:55;102141.91;;;6.06;66.95
9110;BME280;4590;51.462;6.692;2023-01-27T01:27:20;102135.84;;;6.04;66.44
9110;BME280;4590;51.462;6.692;2023-01-27T01:29:45;102140.13;;;5.99;67.11
9110;BME280;4590;51.462;6.692;2023-01-27T01:32:11;102151.88;;;6.00;66.79
9110;BME280;4590;51.462;6.692;2023-01-27T01:34:36;102142.63;;;6.01;66.38
9110;BME280;4590;51.462;6.692;2023-01-27T01:37:02;102152.25;;;6.04;66.26
9110;BME280;4590;51.462;6.692;2023-01-27T01:39:29;102155.00;;;5.92;67.42
9110;BME280;4590;51.462;6.692;2023-01-27T01:41:55;102158.41;;;5.99;66.73
9110;BME280;4590;51.462;6.692;2023-01-27T01:44:26;102167.72;;;5.98;66.69
9110;BME280;4590;51.462;6.692;2023-01-27T01:46:51;102155.44;;;6.01;66.49
9110;BME280;4590;51.462;6.692;2023-01-27T01:49:21;102158.19;;;6.01;66.73
9110;BME280;4590;51.462;6.692;2023-01-27T01:51:53;102155.38;;;5.95;67.47
9110;BME280;4590;51.462;6.692;2023-01-27T01:56:53;102161.91;;;5.94;66.60
9110;BME280;4590;51.462;6.692;2023-01-27T01:59:27;102155.84;;;5.92;66.10
9110;BME280;4590;51.462;6.692;2023-01-27T02:01:57;102167.00;;;5.91;66.44
9110;BME280;4590;51.462;6.692;2023-01-27T02:04:27;102163.69;;;5.89;66.35
9110;BME280;4590;51.462;6.692;2023-01-27T02:07:17;102162.47;;;5.85;66.51
9110;BME280;4590;51.462;6.692;2023-01-27T02:09:44;102166.63;;;5.87;66.58
9110;BME280;4590;51.462;6.692;2023-01-27T02:12:09;102179.09;;;5.83;66.79
9110;BME280;4590;51.462;6.692;2023-01-27T02:14:34;102166.03;;;5.85;66.85
9110;BME280;4590;51.462;6.692;2023-01-27T02:16:59;102167.09;;;5.84;66.32
9110;BME280;4590;51.462;6.692;2023-01-27T02:19:45;102182.31;;;5.80;66.35
9110;BME280;4590;51.462;6.692;2023-01-27T02:22:23;102176.75;;;5.75;65.81
9110;BME280;4590;51.462;6.692;2023-01-27T02:24:55;102183.03;;;5.64;67.00
9110;BME280;4590;51.462;6.692;2023-01-27T02:27:24;102172.09;;;5.76;66.15
9110;BME280;4590;51.462;6.692;2023-01-27T02:29:49;102183.03;;;5.76;66.63
9110;BME280;4590;51.462;6.692;2023-01-27T02:32:24;102176.97;;;5.74;66.41
9110;BME280;4590;51.462;6.692;2023-01-27T02:34:51;102185.63;;;5.71;66.35
9110;BME280;4590;51.462;6.692;2023-01-27T02:37:17;102181.84;;;5.60;67.31
9110;BME280;4590;51.462;6.692;2023-01-27T02:39:44;102184.22;;;5.68;67.11
9110;BME280;4590;51.462;6.692;2023-01-27T02:42:13;102190.63;;;5.62;66.85
9110;BME280;4590;51.462;6.692;2023-01-27T02:44:39;102189.22;;;5.59;66.66
9110;BME280;4590;51.462;6.692;2023-01-27T02:47:04;102189.09;;;5.54;67.29
9110;BME280;4590;51.462;6.692;2023-01-27T02:49:29;102200.25;;;5.53;66.99
9110;BME280;4590;51.462;6.692;2023-01-27T02:51:55;102191.72;;;5.49;66.88
9110;BME280;4590;51.462;6.692;2023-01-27T02:54:23;102201.91;;;5.42;66.35
9110;BME280;4590;51.462;6.692;2023-01-27T02:56:49;102197.66;;;5.35;66.28
9110;BME280;4590;51.462;6.692;2023-01-27T02:59:14;102202.97;;;5.29;66.42
9110;BME280;4590;51.462;6.692;2023-01-27T03:01:39;102199.19;;;5.31;66.33
9110;BME280;4590;51.462;6.692;2023-01-27T03:04:04;102201.63;;;5.09;67.02
9110;BME280;4590;51.462;6.692;2023-01-27T03:06:30;102201.63;;;5.20;66.75
9110;BME280;4590;51.462;6.692;2023-01-27T03:08:55;102209.56;;;5.10;66.70
9110;BME280;4590;51.462;6.692;2023-01-27T03:11:20;102209.44;;;5.05;66.82
9110;BME280;4590;51.462;6.692;2023-01-27T03:14:08;102218.81;;;5.09;66.59
9110;BME280;4590;51.462;6.692;2023-01-27T03:16:34;102199.72;;;5.09;66.82
9110;BME280;4590;51.462;6.692;2023-01-27T03:19:18;102199.72;;;5.09;66.79
9110;BME280;4590;51.462;6.692;2023-01-27T03:21:43;102202.22;;;5.11;67.07
9110;BME280;4590;51.462;6.692;2023-01-27T03:24:09;102210.19;;;5.12;66.92
9110;BME280;4590;51.462;6.692;2023-01-27T03:26:35;102196.91;;;5.16;66.90
9110;BME280;4590;51.462;6.692;2023-01-27T03:29:03;102198.56;;;5.17;67.13
9110;BME280;4590;51.462;6.692;2023-01-27T03:31:47;102202.00;;;5.12;67.80
9110;BME280;4590;51.462;6.692;2023-01-27T03:34:12;102195.59;;;5.18;67.64
9110;BME280;4590;51.462;6.692;2023-01-27T03:36:37;102190.97;;;5.19;67.74
9110;BME280;4590;51.462;6.692;2023-01-27T03:39:21;102208.06;;;5.14;67.87
9110;BME280;4590;51.462;6.692;2023-01-27T03:42:05;102201.16;;;5.12;68.11
9110;BME280;4590;51.462;6.692;2023-01-27T03:44:49;102211.38;;;5.16;67.97
9110;BME280;4590;51.462;6.692;2023-01-27T03:47:33;102207.22;;;5.14;68.33
9110;BME280;4590;51.462;6.692;2023-01-27T03:49:58;102212.44;;;5.15;68.63
9110;BME280;4590;51.462;6.692;2023-01-27T03:52:24;102211.16;;;5.18;68.59
9110;BME280;4590;51.462;6.692;2023-01-27T03:54:49;102202.72;;;5.19;68.58
9110;BME280;4590;51.462;6.692;2023-01-27T03:57:14;102207.34;;;5.19;68.63
9110;BME280;4590;51.462;6.692;2023-01-27T03:59:39;102201.41;;;5.22;68.62
9110;BME280;4590;51.462;6.692;2023-01-27T04:02:05;102205.56;;;5.24;69.26
9110;BME280;4590;51.462;6.692;2023-01-27T04:04:48;102221.56;;;5.21;69.53
9110;BME280;4590;51.462;6.692;2023-01-27T04:07:36;102213.53;;;5.26;69.26
9110;BME280;4590;51.462;6.692;2023-01-27T04:10:03;102211.75;;;5.32;69.51
9110;BME280;4590;51.462;6.692;2023-01-27T04:12:28;102209.25;;;5.30;69.24
9110;BME280;4590;51.462;6.692;2023-01-27T04:14:54;102206.16;;;5.26;69.13
9110;BME280;4590;51.462;6.692;2023-01-27T04:17:19;102216.25;;;5.26;69.40
9110;BME280;4590;51.462;6.692;2023-01-27T04:19:44;102216.72;;;5.23;69.70
9110;BME280;4590;51.462;6.692;2023-01-27T04:22:11;102221.56;;;5.21;69.60
9110;BME280;4590;51.462;6.692;2023-01-27T04:24:36;102216.56;;;5.06;70.81
9110;BME280;4590;51.462;6.692;2023-01-27T04:27:10;102212.91;;;5.12;70.09
9110;BME280;4590;51.462;6.692;2023-01-27T04:29:38;102210.78;;;5.14;70.15
9110;BME280;4590;51.462;6.692;2023-01-27T04:32:06;102218.38;;;5.12;70.07
9110;BME280;4590;51.462;6.692;2023-01-27T04:34:33;102220.50;;;5.10;70.06
9110;BME280;4590;51.462;6.692;2023-01-27T04:36:59;102219.06;;;5.08;70.11
9110;BME280;4590;51.462;6.692;2023-01-27T04:39:24;102215.72;;;5.06;70.03
9110;BME280;4590;51.462;6.692;2023-01-27T04:41:50;102224.75;;;5.06;70.02
9110;BME280;4590;51.462;6.692;2023-01-27T04:44:16;102221.41;;;5.04;70.47
9110;BME280;4590;51.462;6.692;2023-01-27T04:46:44;102223.91;;;5.06;70.38
9110;BME280;4590;51.462;6.692;2023-01-27T04:49:09;102232.09;;;5.06;70.73
9110;BME280;4590;51.462;6.692;2023-01-27T04:51:35;102221.41;;;5.04;70.52
9110;BME280;4590;51.462;6.692;2023-01-27T04:54:00;102230.19;;;5.06;70.28
9110;BME280;4590;51.462;6.692;2023-01-27T04:57:13;102230.44;;;5.05;70.64
9110;BME280;4590;51.462;6.692;2023-01-27T04:59:19;102232.94;;;5.06;70.41
9110;BME280;4590;51.462;6.692;2023-01-27T05:01:44;102234.00;;;5.05;71.00
9110;BME280;4590;51.462;6.692;2023-01-27T05:04:10;102233.16;;;5.05;70.34
9110;BME280;4590;51.462;6.692;2023-01-27T05:06:35;102227.69;;;5.05;70.77
9110;BME280;4590;51.462;6.692;2023-01-27T05:09:00;102239.94;;;5.02;70.60
9110;BME280;4590;51.462;6.692;2023-01-27T05:11:25;102231.75;;;5.02;70.97
9110;BME280;4590;51.462;6.692;2023-01-27T05:13:51;102236.16;;;5.03;70.46
9110;BME280;4590;51.462;6.692;2023-01-27T05:16:18;102226.88;;;5.04;70.97
9110;BME280;4590;51.462;6.692;2023-01-27T05:18:46;102231.25;;;5.05;70.63
9110;BME280;4590;51.462;6.692;2023-01-27T05:21:17;102226.41;;;5.07;70.93
9110;BME280;4590;51.462;6.692;2023-01-27T05:23:43;102224.06;;;5.11;70.88
9110;BME280;4590;51.462;6.692;2023-01-27T05:26:13;102230.34;;;5.11;70.80
9110;BME280;4590;51.462;6.692;2023-01-27T05:28:41;102232.00;;;5.12;70.52
9110;BME280;4590;51.462;6.692;2023-01-27T05:31:15;102221.56;;;5.09;71.04
9110;BME280;4590;51.462;6.692;2023-01-27T05:33:42;102236.63;;;5.12;70.76
9110;BME280;4590;51.462;6.692;2023-01-27T05:36:11;102235.78;;;5.11;70.95
9110;BME280;4590;51.462;6.692;2023-01-27T05:38:37;102233.31;;;5.10;70.42
9110;BME280;4590;51.462;6.692;2023-01-27T05:41:04;102238.16;;;5.08;71.20
9110;BME280;4590;51.462;6.692;2023-01-27T05:43:32;102232.47;;;5.09;71.12
9110;BME280;4590;51.462;6.692;2023-01-27T05:48:27;102234.38;;;5.09;71.45
9110;BME280;4590;51.462;6.692;2023-01-27T05:50:54;102241.47;;;5.10;71.54
9110;BME280;4590;51.462;6.692;2023-01-27T05:53:19;102252.16;;;5.11;70.64
9110;BME280;4590;51.462;6.692;2023-01-27T05:55:45;102242.31;;;5.10;71.08
9110;BME280;4590;51.462;6.692;2023-01-27T05:58:10;102240.19;;;5.12;70.92
9110;BME280;4590;51.462;6.692;2023-01-27T06:00:35;102245.66;;;5.12;71.28
9110;BME280;4590;51.462;6.692;2023-01-27T06:03:00;102240.19;;;5.12;71.47
9110;BME280;4590;51.462;6.692;2023-01-27T06:05:26;102247.44;;;5.18;71.32
9110;BME280;4590;51.462;6.692;2023-01-27T06:07:51;102248.84;;;5.21;71.86
9110;BME280;4590;51.462;6.692;2023-01-27T06:10:16;102239.16;;;5.25;71.00
9110;BME280;4590;51.462;6.692;2023-01-27T06:12:42;102237.84;;;5.27;71.06
9110;BME280;4590;51.462;6.692;2023-01-27T06:15:07;102253.53;;;5.32;71.26
9110;BME280;4590;51.462;6.692;2023-01-27T06:17:33;102245.34;;;5.32;71.00
9110;BME280;4590;51.462;6.692;2023-01-27T06:19:58;102253.31;;;5.34;71.12
9110;BME280;4590;51.462;6.692;2023-01-27T06:22:23;102249.13;;;5.31;71.11
9110;BME280;4590;51.462;6.692;2023-01-27T06:24:48;102250.81;;;5.32;71.21
9110;BME280;4590;51.462;6.692;2023-01-27T06:27:16;102262.56;;;5.33;71.04
9110;BME280;4590;51.462;6.692;2023-01-27T06:29:42;102264.22;;;5.34;70.83
9110;BME280;4590;51.462;6.692;2023-01-27T06:32:07;102258.38;;;5.30;71.11
9110;BME280;4590;51.462;6.692;2023-01-27T06:34:32;102265.50;;;5.31;71.07
9110;BME280;4590;51.462;6.692;2023-01-27T06:36:57;102282.72;;;5.32;70.51
9110;BME280;4590;51.462;6.692;2023-01-27T06:39:23;102278.31;;;5.31;71.30
9110;BME280;4590;51.462;6.692;2023-01-27T06:41:48;102284.16;;;5.34;71.17
9110;BME280;4590;51.462;6.692;2023-01-27T06:44:14;102286.63;;;5.36;70.81
9110;BME280;4590;51.462;6.692;2023-01-27T06:46:39;102280.94;;;5.37;71.63
9110;BME280;4590;51.462;6.692;2023-01-27T06:49:05;102279.88;;;5.38;70.80
9110;BME280;4590;51.462;6.692;2023-01-27T06:51:30;102281.91;;;5.43;70.82
9110;BME280;4590;51.462;6.692;2023-01-27T06:53:56;102278.72;;;5.46;70.56
9110;BME280;4590;51.462;6.692;2023-01-27T06:56:21;102281.81;;;5.49;70.89
9110;BME280;4590;51.462;6.692;2023-01-27T06:58:46;102279.91;;;5.50;70.63
9110;BME280;4590;51.462;6.692;2023-01-27T07:01:11;102284.88;;;5.53;70.54
9110;BME280;4590;51.462;6.692;2023-01-27T07:03:37;102284.41;;;5.56;70.56
9110;BME280;4590;51.462;6.692;2023-01-27T07:06:02;102285.00;;;5.58;70.37
9110;BME280;4590;51.462;6.692;2023-01-27T07:08:27;102293.19;;;5.58;70.05
9110;BME280;4590;51.462;6.692;2023-01-27T07:10:53;102289.88;;;5.56;70.47
9110;BME280;4590;51.462;6.692;2023-01-27T07:13:18;102291.31;;;5.58;70.40
9110;BME280;4590;51.462;6.692;2023-01-27T07:15:43;102294.41;;;5.62;70.22
9110;BME280;4590;51.462;6.692;2023-01-27T07:18:10;102290.59;;;5.63;69.92
9110;BME280;4590;51.462;6.692;2023-01-27T07:20:36;102299.63;;;5.63;69.87
9110;BME280;4590;51.462;6.692;2023-01-27T07:23:04;102302.38;;;5.63;69.85
9110;BME280;4590;51.462;6.692;2023-01-27T07:25:30;102300.47;;;5.64;69.97
9110;BME280;4590;51.462;6.692;2023-01-27T07:27:57;102315.78;;;5.65;70.28
9110;BME280;4590;51.462;6.692;2023-01-27T07:30:23;102310.31;;;5.65;70.02
9110;BME280;4590;51.462;6.692;2023-01-27T07:32:48;102319.34;;;5.66;69.94
9110;BME280;4590;51.462;6.692;2023-01-27T07:35:15;102315.28;;;5.68;70.30
9110;BME280;4590;51.462;6.692;2023-01-27T07:37:40;102304.97;;;5.70;70.04
9110;BME280;4590;51.462;6.692;2023-01-27T07:40:06;102315.88;;;5.70;69.99
9110;BME280;4590;51.462;6.692;2023-01-27T07:42:32;102314.13;;;5.64;70.55
9110;BME280;4590;51.462;6.692;2023-01-27T07:44:57;102323.03;;;5.71;70.44
9110;BME280;4590;51.462;6.692;2023-01-27T07:47:22;102325.75;;;5.71;70.05
9110;BME280;4590;51.462;6.692;2023-01-27T07:49:48;102320.66;;;5.75;70.37
9110;BME280;4590;51.462;6.692;2023-01-27T07:52:14;102318.84;;;5.69;70.21
9110;BME280;4590;51.462;6.692;2023-01-27T07:54:39;102326.81;;;5.70;70.51
9110;BME280;4590;51.462;6.692;2023-01-27T07:57:04;102323.38;;;5.75;69.89
9110;BME280;4590;51.462;6.692;2023-01-27T07:59:29;102328.38;;;5.78;70.09
9110;BME280;4590;51.462;6.692;2023-01-27T08:01:55;102324.59;;;5.79;70.10
9110;BME280;4590;51.462;6.692;2023-01-27T08:04:20;102335.28;;;5.80;70.29
9110;BME280;4590;51.462;6.692;2023-01-27T08:06:45;102325.41;;;5.79;70.52
9110;BME280;4590;51.462;6.692;2023-01-27T08:09:10;102334.44;;;5.80;69.99
9110;BME280;4590;51.462;6.692;2023-01-27T08:11:36;102339.06;;;5.79;70.22
9110;BME280;4590;51.462;6.692;2023-01-27T08:14:01;102337.19;;;5.80;70.14
9110;BME280;4590;51.462;6.692;2023-01-27T08:16:27;102332.19;;;5.77;70.21
9110;BME280;4590;51.462;6.692;2023-01-27T08:18:53;102346.31;;;5.74;70.00
9110;BME280;4590;51.462;6.692;2023-01-27T08:21:18;102340.38;;;5.77;70.05
9110;BME280;4590;51.462;6.692;2023-01-27T08:23:45;102344.78;;;5.78;69.77
9110;BME280;4590;51.462;6.692;2023-01-27T08:26:10;102336.69;;;5.71;70.91
9110;BME280;4590;51.462;6.692;2023-01-27T08:28:37;102338.47;;;5.77;69.78
9110;BME280;4590;51.462;6.692;2023-01-27T08:31:04;102336.94;;;5.81;70.25
9110;BME280;4590;51.462;6.692;2023-01-27T08:33:30;102345.47;;;5.85;70.22
9110;BME280;4590;51.462;6.692;2023-01-27T08:35:55;102343.81;;;5.84;70.50
9110;BME280;4590;51.462;6.692;2023-01-27T08:38:21;102337.78;;;5.82;70.01
9110;BME280;4590;51.462;6.692;2023-01-27T08:40:46;102345.25;;;5.86;69.99
9110;BME280;4590;51.462;6.692;2023-01-27T08:43:12;102345.47;;;5.85;70.59
9110;BME280;4590;51.462;6.692;2023-01-27T08:45:40;102344.41;;;5.86;70.25
9110;BME280;4590;51.462;6.692;2023-01-27T08:48:05;102356.81;;;5.88;69.93
9110;BME280;4590;51.462;6.692;2023-01-27T08:50:31;102349.03;;;5.85;69.81
9110;BME280;4590;51.462;6.692;2023-01-27T08:52:57;102355.00;;;5.82;70.55
9110;BME280;4590;51.462;6.692;2023-01-27T08:55:27;102346.53;;;5.84;70.29
9110;BME280;4590;51.462;6.692;2023-01-27T08:57:52;102339.78;;;5.86;69.88
9110;BME280;4590;51.462;6.692;2023-01-27T09:00:18;102346.31;;;5.85;70.29
9110;BME280;4590;51.462;6.692;2023-01-27T09:02:44;102356.09;;;5.93;70.27
9110;BME280;4590;51.462;6.692;2023-01-27T09:05:10;102355.97;;;5.99;69.93
9110;BME280;4590;51.462;6.692;2023-01-27T09:07:35;102357.63;;;6.01;70.34
9110;BME280;4590;51.462;6.692;2023-01-27T09:10:00;102363.09;;;6.01;69.73
9110;BME280;4590;51.462;6.692;2023-01-27T09:12:26;102361.94;;;6.08;70.54
9110;BME280;4590;51.462;6.692;2023-01-27T09:14:51;102368.47;;;6.07;70.03
9110;BME280;4590;51.462;6.692;2023-01-27T09:17:16;102377.63;;;6.13;70.01
9110;BME280;4590;51.462;6.692;2023-01-27T09:19:44;102374.63;;;6.14;69.89
9110;BME280;4590;51.462;6.692;2023-01-27T09:22:09;102375.84;;;6.18;69.45
9110;BME280;4590;51.462;6.692;2023-01-27T09:24:35;102383.78;;;6.20;69.31
9110;BME280;4590;51.462;6.692;2023-01-27T09:27:00;102382.97;;;6.19;69.61
9110;BME280;4590;51.462;6.692;2023-01-27T09:29:25;102390.09;;;6.20;69.24
9110;BME280;4590;51.462;6.692;2023-01-27T09:31:50;102384.41;;;6.22;70.02
9110;BME280;4590;51.462;6.692;2023-01-27T09:34:16;102392.34;;;6.23;69.97
9110;BME280;4590;51.462;6.692;2023-01-27T09:36:47;102395.09;;;6.23;69.27
9110;BME280;4590;51.462;6.692;2023-01-27T09:39:16;102400.31;;;6.25;69.44
9110;BME280;4590;51.462;6.692;2023-01-27T09:56:00;102413.72;;;6.15;70.07
9110;BME280;4590;51.462;6.692;2023-01-27T09:58:51;102408.53;;;6.13;69.88
9110;BME280;4590;51.462;6.692;2023-01-27T10:20:58;102405.91;;;6.07;69.69
9110;BME280;4590;51.462;6.692;2023-01-27T10:29:19;102420.38;;;6.07;69.83
9110;BME280;4590;51.462;6.692;2023-01-27T10:31:49;102411.13;;;6.08;69.56
9110;BME280;4590;51.462;6.692;2023-01-27T10:34:33;102411.72;;;6.10;69.35
9110;BME280;4590;51.462;6.692;2023-01-27T10:37:08;102407.44;;;6.14;69.32
9110;BME280;4590;51.462;6.692;2023-01-27T10:40:05;102416.13;;;6.11;69.74
9110;BME280;4590;51.462;6.692;2023-01-27T10:42:59;102410.91;;;6.10;68.96
9110;BME280;4590;51.462;6.692;2023-01-27T10:45:40;102407.56;;;6.08;70.23
9110;BME280;4590;51.462;6.692;2023-01-27T10:48:24;102420.03;;;6.04;69.66
9110;BME280;4590;51.462;6.692;2023-01-27T10:50:59;102416.13;;;6.11;69.21
9110;BME280;4590;51.462;6.692;2023-01-27T10:53:58;102418.03;;;6.11;69.80
9110;BME280;4590;51.462;6.692;2023-01-27T10:56:42;102416.22;;;6.16;69.16
9110;BME280;4590;51.462;6.692;2023-01-27T10:59:39;102415.75;;;6.08;69.41
9110;BME280;4590;51.462;6.692;2023-01-27T11:02:30;102405.91;;;6.07;68.98
9110;BME280;4590;51.462;6.692;2023-01-27T11:05:01;102414.81;;;6.25;69.29
9110;BME280;4590;51.462;6.692;2023-01-27T11:07:31;102404.25;;;6.29;69.60
9110;BME280;4590;51.462;6.692;2023-01-27T11:10:06;102401.84;;;6.32;69.19
9110;BME280;4590;51.462;6.692;2023-01-27T11:12:34;102401.16;;;6.37;68.79
9110;BME280;4590;51.462;6.692;2023-01-27T11:15:09;102395.44;;;6.39;69.67
9110;BME280;4590;51.462;6.692;2023-01-27T11:17:44;102400.22;;;6.43;69.07
9110;BME280;4590;51.462;6.692;2023-01-27T11:20:31;102396.75;;;6.48;69.52
9110;BME280;4590;51.462;6.692;2023-01-27T11:23:05;102390.09;;;6.55;68.78
9110;BME280;4590;51.462;6.692;2023-01-27T11:28:41;102396.28;;;6.51;68.73
9110;BME280;4590;51.462;6.692;2023-01-27T11:34:06;102396.75;;;6.48;68.30
9110;BME280;4590;51.462;6.692;2023-01-27T11:36:35;102399.16;;;6.44;69.08
9110;BME280;4590;51.462;6.692;2023-01-27T11:39:00;102387.13;;;6.45;68.74
9110;BME280;4590;51.462;6.692;2023-01-27T11:41:31;102394.25;;;6.46;68.37
9110;BME280;4590;51.462;6.692;2023-01-27T11:44:00;102395.34;;;6.45;68.65
9110;BME280;4590;51.462;6.692;2023-01-27T11:46:29;102390.44;;;6.36;67.94
9110;BME280;4590;51.462;6.692;2023-01-27T11:48:56;102385.22;;;6.34;68.27
9110;BME280;4590;51.462;6.692;2023-01-27T11:51:25;102386.53;;;6.31;68.17
9110;BME280;4590;51.462;6.692;2023-01-27T11:54:16;102379.66;;;6.29;67.83
9110;BME280;4590;51.462;6.692;2023-01-27T11:56:44;102385.69;;;6.31;67.83
9110;BME280;4590;51.462;6.692;2023-01-27T11:59:27;102375.50;;;6.26;67.48
9110;BME280;4590;51.462;6.692;2023-01-27T12:02:02;102376.09;;;6.28;67.98
9110;BME280;4590;51.462;6.692;2023-01-27T12:04:48;102380.81;;;6.33;67.55
9110;BME280;4590;51.462;6.692;2023-01-27T12:07:37;102365.72;;;6.30;67.63
9110;BME280;4590;51.462;6.692;2023-01-27T12:13:14;102375.94;;;6.47;66.99
9110;BME280;4590;51.462;6.692;2023-01-27T12:15:48;102376.69;;;6.42;66.58
9110;BME280;4590;51.462;6.692;2023-01-27T12:18:15;102368.56;;;6.47;67.35
9110;BME280;4590;51.462;6.692;2023-01-27T12:20:43;102370.22;;;6.48;66.94
9110;BME280;4590;51.462;6.692;2023-01-27T12:23:21;102365.75;;;6.42;66.34
9110;BME280;4590;51.462;6.692;2023-01-27T12:25:52;102372.38;;;6.46;67.10
9110;BME280;4590;51.462;6.692;2023-01-27T12:28:28;102361.44;;;6.46;66.48
9110;BME280;4590;51.462;6.692;2023-01-27T12:31:03;102358.81;;;6.51;66.72
9110;BME280;4590;51.462;6.692;2023-01-27T12:33:31;102356.69;;;6.53;66.95
9110;BME280;4590;51.462;6.692;2023-01-27T12:35:58;102346.09;;;6.57;66.84
9110;BME280;4590;51.462;6.692;2023-01-27T12:38:28;102339.09;;;6.61;66.71
9110;BME280;4590;51.462;6.692;2023-01-27T12:41:01;102348.91;;;6.62;66.20
9110;BME280;4590;51.462;6.692;2023-01-27T12:43:28;102339.16;;;6.66;65.86
9110;BME280;4590;51.462;6.692;2023-01-27T12:46:17;102345.47;;;6.66;65.79
9110;BME280;4590;51.462;6.692;2023-01-27T12:48:49;102339.66;;;6.75;65.89
9110;BME280;4590;51.462;6.692;2023-01-27T12:51:18;102330.69;;;6.79;65.83
9110;BME280;4590;51.462;6.692;2023-01-27T12:53:46;102332.47;;;6.85;66.12
9110;BME280;4590;51.462;6.692;2023-01-27T12:56:21;102331.97;;;6.88;65.75
9110;BME280;4590;51.462;6.692;2023-01-27T13:03:44;102334.19;;;7.03;65.56
9110;BME280;4590;51.462;6.692;2023-01-27T13:06:14;102331.81;;;7.07;66.31
9110;BME280;4590;51.462;6.692;2023-01-27T13:08:41;102338.19;;;7.12;66.10
9110;BME280;4590;51.462;6.692;2023-01-27T13:11:07;102346.81;;;7.04;65.17
9110;BME280;4590;51.462;6.692;2023-01-27T13:13:33;102341.69;;;7.08;65.35
9110;BME280;4590;51.462;6.692;2023-01-27T13:16:14;102341.34;;;7.04;65.14
9110;BME280;4590;51.462;6.692;2023-01-27T13:18:41;102341.41;;;7.09;65.10
9110;BME280;4590;51.462;6.692;2023-01-27T13:21:12;102344.41;;;7.08;65.45
9110;BME280;4590;51.462;6.692;2023-01-27T13:23:40;102346.63;;;7.11;65.13
9110;BME280;4590;51.462;6.692;2023-01-27T13:26:12;102342.25;;;7.10;65.62
9110;BME280;4590;51.462;6.692;2023-01-27T13:28:51;102346.06;;;7.09;64.71
9110;BME280;4590;51.462;6.692;2023-01-27T13:34:32;102350.97;;;7.07;65.34
9110;BME280;4590;51.462;6.692;2023-01-27T13:37:17;102353.59;;;7.01;64.31
9110;BME280;4590;51.462;6.692;2023-01-27T13:39:52;102362.63;;;7.02;64.88
9110;BME280;4590;51.462;6.692;2023-01-27T13:42:40;102347.34;;;6.89;64.47
9110;BME280;4590;51.462;6.692;2023-01-27T13:48:03;102359.69;;;6.92;64.91
9110;BME280;4590;51.462;6.692;2023-01-27T13:50:36;102361.84;;;6.90;64.67
9110;BME280;4590;51.462;6.692;2023-01-27T13:53:04;102360.31;;;6.82;64.69
9110;BME280;4590;51.462;6.692;2023-01-27T13:55:53;102366.84;;;6.81;64.17
9110;BME280;4590;51.462;6.692;2023-01-27T14:01:32;102371.13;;;6.77;64.05
9110;BME280;4590;51.462;6.692;2023-01-27T14:10:07;102380.78;;;6.68;64.78
9110;BME280;4590;51.462;6.692;2023-01-27T14:15:39;102383.78;;;6.66;64.58
9110;BME280;4590;51.462;6.692;2023-01-27T14:18:22;102374.88;;;6.59;63.63
9110;BME280;4590;51.462;6.692;2023-01-27T14:21:12;102376.41;;;6.55;63.79
9110;BME280;4590;51.462;6.692;2023-01-27T14:32:29;102382.38;;;6.52;63.89
9110;BME280;4590;51.462;6.692;2023-01-27T14:41:04;102389.59;;;6.47;63.92
9110;BME280;4590;51.462;6.692;2023-01-27T14:43:54;102388.91;;;6.40;63.62
9110;BME280;4590;51.462;6.692;2023-01-27T14:49:14;102393.56;;;6.39;63.65
9110;BME280;4590;51.462;6.692;2023-01-27T14:52:08;102393.09;;;6.42;63.59
9110;BME280;4590;51.462;6.692;2023-01-27T14:54:52;102396.66;;;6.43;63.65
9110;BME280;4590;51.462;6.692;2023-01-27T15:06:12;102400.91;;;6.50;63.82
9110;BME280;4590;51.462;6.692;2023-01-27T15:08:58;102399.38;;;6.54;64.00
9110;BME280;4590;51.462;6.692;2023-01-27T15:11:41;102397.00;;;6.58;64.10
9110;BME280;4590;51.462;6.692;2023-01-27T15:28:08;102416.38;;;6.56;63.52
9110;BME280;4590;51.462;6.692;2023-01-27T15:30:37;102421.47;;;6.53;63.59
9110;BME280;4590;51.462;6.692;2023-01-27T15:41:51;102430.63;;;6.47;63.17